Latest Weather Observations for Cape Flattery

IDQ60801

Issued at 5:35 am EST Wednesday 1 October 2014 (issued every 30 minutes, with the page automatically refreshed every 10 minutes)

About weather observations | Map of weather stations | Latest weather observations for QLD | Other Formats
Station Details ID: 031213 Name: CAPE FLATTERY Lat: -14.97 Lon: 145.31 Height: 18.5 m
Data from the previous 72 hours. | See also: Recent months at Cape Flattery
Date/Time
EST
Temp
°C
App
Temp
°C
Dew
Point
Rel
Hum
%
Delta-T
°C
Wind Press
QNH
hPa
Press
MSL
hPa
Rain
since 9 am
mm
Dir
 
Spd
km/h
Gust
km/h
Spd
kts
Gust
kts
01/05:30am 23.1 20.1 16.9 68 3.8 SE 28 39 15 21 1015.1 1015.0 0.0
01/05:00am 23.3 20.3 16.8 67 4.0 SE 28 37 15 20 1014.8 1014.7 0.0
01/04:30am 23.8 20.4 16.8 65 4.3 SE 30 43 16 23 1014.7 1014.6 0.0
01/04:00am 23.8 20.5 16.1 62 4.7 SE 28 35 15 19 1014.5 1014.4 0.0
01/03:30am 23.5 20.7 16.3 64 4.4 SE 26 37 14 20 1014.4 1014.3 0.0
01/03:00am 23.7 20.8 16.2 63 4.6 SE 26 37 14 20 1014.5 1014.4 0.0
01/02:30am 23.4 20.6 16.4 64 4.3 SE 26 37 14 20 1014.7 1014.6 0.0
01/02:00am 23.5 20.3 15.3 60 4.9 SE 26 35 14 19 1015.1 1015.0 0.0
01/01:30am 23.8 20.4 15.8 61 4.8 SE 28 35 15 19 1015.2 1015.1 0.0
01/01:00am 23.2 21.3 15.8 63 4.5 SE 20 30 11 16 1015.6 1015.5 0.0
01/12:30am 23.4 19.9 15.5 61 4.7 SE 28 37 15 20 1016.1 1016.0 0.0
01/12:00am 23.6 20.1 15.6 61 4.8 SE 28 39 15 21 1016.6 1016.5 0.0
 
Date/Time
EST
Temp
°C
App
Temp
°C
Dew
Point
Rel
Hum
%
Delta-T
°C
Wind Press
QNH
hPa
Press
MSL
hPa
Rain
since 9 am
mm
Dir
 
Spd
km/h
Gust
km/h
Spd
kts
Gust
kts
30/11:30pm 23.6 20.7 16.1 62 4.6 SE 26 37 14 20 1016.8 1016.7 0.0
30/11:00pm 23.7 20.2 16.5 64 4.4 SE 30 39 16 21 1017.1 1017.0 0.0
30/10:30pm 23.6 21.7 17.6 69 3.7 SE 24 35 13 19 1017.3 1017.2 0.0
30/10:00pm 23.9 21.6 17.6 68 3.9 SE 26 39 14 21 1017.3 1017.2 0.0
30/09:30pm 23.6 21.2 17.3 67 3.9 SE 26 35 14 19 1017.1 1017.0 0.0
30/09:00pm 23.5 21.0 17.0 67 4.0 SE 26 35 14 19 1017.0 1016.9 0.0
30/08:30pm 23.3 20.0 16.1 64 4.4 SE 28 39 15 21 1016.9 1016.8 0.0
30/08:00pm 23.4 20.6 16.4 64 4.3 SE 26 35 14 19 1016.7 1016.6 0.0
30/07:30pm 23.7 21.5 17.0 66 4.1 SE 24 35 13 19 1016.4 1016.3 0.0
30/07:00pm 24.0 20.7 16.0 61 4.9 SE 28 39 15 21 1016.1 1016.0 0.0
30/06:30pm 24.0 21.2 17.3 66 4.2 SE 28 39 15 21 1015.8 1015.7 0.0
30/06:00pm 24.2 21.2 16.7 63 4.6 SE 28 37 15 20 1015.5 1015.4 0.0
30/05:30pm 24.9 20.7 15.8 57 5.5 SE 32 39 17 21 1015.2 1015.1 0.0
30/05:00pm 25.7 21.5 15.7 54 6.1 SSE 32 39 17 21 1015.0 1014.9 0.0
30/04:30pm 26.4 22.1 14.5 48 7.1 SSE 30 41 16 22 1014.8 1014.7 0.0
30/04:00pm 26.9 23.3 15.3 49 7.0 SSE 28 39 15 21 1014.8 1014.7 0.0
30/03:30pm 27.1 23.3 15.8 50 6.9 SE 30 41 16 22 1014.8 1014.7 0.0
30/03:00pm 26.8 22.3 15.5 50 6.9 SE 33 44 18 24 1015.1 1015.0 0.0
30/02:30pm 27.1 23.0 17.3 55 6.1 SE 35 44 19 24 1015.3 1015.2 0.0
30/02:00pm 27.9 23.5 14.2 43 8.2 SE 30 43 16 23 1015.3 1015.2 0.0
30/01:30pm 28.1 23.2 13.6 41 8.6 SE 32 44 17 24 1015.6 1015.5 0.0
30/01:00pm 28.0 22.5 12.4 38 9.1 SE 33 43 18 23 1016.0 1015.9 0.0
30/12:30pm 28.3 22.8 12.6 38 9.2 SE 33 44 18 24 1016.4 1016.3 0.0
30/12:00pm 27.9 22.6 14.2 43 8.2 SE 35 46 19 25 1016.9 1016.8 0.0
30/11:30am 27.4 22.4 15.1 47 7.5 SE 35 44 19 24 1017.4 1017.3 0.0
30/11:00am 27.2 22.0 15.6 49 7.1 SE 37 46 20 25 1017.8 1017.7 0.0
30/10:30am 27.3 23.3 16.6 52 6.6 SE 33 43 18 23 1018.0 1017.9 0.0
30/10:00am 25.6 21.3 15.3 53 6.2 ESE 32 44 17 24 1017.9 1017.8 0.0
30/09:30am 25.9 21.8 16.5 56 5.8 ESE 33 43 18 23 1018.0 1017.9 0.0
30/09:08am 26.2 22.4 17.3 58 5.6 ESE 33 52 18 28 1018.0 1017.9 0.0
30/09:00am 26.5 21.9 17.0 56 5.9 SE 37 52 20 28 1018.0 1017.9 0.6
30/08:30am 26.1 23.0 17.5 59 5.4 ESE 30 44 16 24 1017.7 1017.6 0.6
30/08:00am 24.2 20.8 17.7 67 4.1 ESE 32 46 17 25 1017.2 1017.1 0.6
30/07:35am 24.2 21.4 18.2 69 3.8 ESE 30 50 16 27 1016.8 1016.7 0.6
30/07:30am 24.1 21.5 17.8 68 3.9 ESE 28 43 15 23 1016.8 1016.7 0.6
30/07:00am 22.7 21.1 18.3 76 2.8 ESE 24 35 13 19 1016.4 1016.3 0.6
30/06:30am 21.4 21.1 19.1 87 1.5 SE 19 32 10 17 1015.9 1015.8 0.6
30/06:00am 22.8 21.5 19.0 79 2.4 SE 24 30 13 16 1015.8 1015.7 0.0
30/05:30am 21.6 20.1 17.6 78 2.5 ESE 22 32 12 17 1015.5 1015.4 0.0
30/05:00am 21.7 21.0 18.3 81 2.1 SE 19 33 10 18 1015.4 1015.3 0.0
30/04:30am 22.2 18.7 17.8 76 2.7 ESE 33 50 18 27 1015.2 1015.1 0.0
30/04:27am 22.7 20.2 18.0 75 2.9 ESE 28 50 15 27 1015.1 1015.0 0.0
30/04:00am 23.1 21.0 17.1 69 3.7 ESE 24 35 13 19 1014.8 1014.7 0.0
30/03:30am 23.3 20.7 17.7 71 3.5 ESE 28 37 15 20 1014.7 1014.6 0.0
30/03:00am 23.5 21.5 18.4 73 3.2 ESE 26 35 14 19 1014.8 1014.7 0.0
30/02:30am 23.6 21.8 17.8 70 3.6 ESE 24 33 13 18 1015.0 1014.9 0.0
30/02:00am 23.7 22.7 17.9 70 3.6 ESE 20 30 11 16 1015.3 1015.2 0.0
30/01:30am 23.6 22.1 17.8 70 3.6 ESE 22 32 12 17 1015.5 1015.4 0.0
30/01:00am 23.5 21.7 17.9 71 3.5 ESE 24 35 13 19 1015.8 1015.7 0.0
30/12:30am 23.3 22.3 18.8 76 2.8 E 22 35 12 19 1016.1 1016.0 0.0
30/12:00am 23.3 21.3 17.3 69 3.7 SE 24 32 13 17 1016.3 1016.2 0.0
 
Date/Time
EST
Temp
°C
App
Temp
°C
Dew
Point
Rel
Hum
%
Delta-T
°C
Wind Press
QNH
hPa
Press
MSL
hPa
Rain
since 9 am
mm
Dir
 
Spd
km/h
Gust
km/h
Spd
kts
Gust
kts
29/11:30pm 23.3 21.0 17.7 71 3.5 SE 26 35 14 19 1016.6 1016.5 0.0
29/11:00pm 23.5 21.9 18.4 73 3.2 SE 24 33 13 18 1016.8 1016.7 0.0
29/10:30pm 23.9 22.4 17.6 68 3.9 ESE 22 28 12 15 1016.9 1016.8 0.0
29/10:00pm 23.7 21.9 17.0 66 4.1 SE 22 30 12 16 1017.0 1016.9 0.0
29/09:30pm 23.5 21.1 16.5 65 4.3 ESE 24 30 13 16 1017.0 1016.9 0.0
29/09:00pm 23.4 21.1 16.7 66 4.1 ESE 24 32 13 17 1016.8 1016.7 0.0
29/08:30pm 23.4 21.3 17.2 68 3.8 ESE 24 33 13 18 1016.4 1016.3 0.0
29/08:00pm 23.2 22.5 18.7 76 2.8 SE 20 28 11 15 1016.1 1016.0 0.0
29/07:30pm 22.9 21.5 18.0 74 3.1 SE 22 32 12 17 1016.0 1015.9 0.0
29/07:00pm 22.4 20.8 18.4 78 2.5 SE 24 32 13 17 1015.7 1015.6 0.0
29/06:30pm 22.2 20.8 18.8 81 2.1 SE 24 33 13 18 1015.3 1015.2 0.0
29/06:00pm 21.7 21.5 19.4 87 1.5 SSE 19 22 10 12 1015.1 1015.0 0.0
29/05:30pm 21.7 18.2 18.7 83 1.9 SSE 35 46 19 25 1014.9 1014.8 0.0
29/05:00pm 24.9 22.2 16.6 60 5.1 SE 26 35 14 19 1014.5 1014.4 0.0
29/04:30pm 25.2 23.3 15.8 56 5.7 ESE 20 30 11 16 1014.3 1014.2 0.0
29/04:00pm 24.5 22.3 17.0 63 4.6 ESE 24 39 13 21 1014.4 1014.3 0.0
29/03:30pm 25.5 21.5 16.1 56 5.8 ESE 32 44 17 24 1014.3 1014.2 0.0
29/03:00pm 28.2 24.6 17.1 51 7.0 SE 32 46 17 25 1014.4 1014.3 0.0
29/02:30pm 27.8 24.1 17.0 51 6.8 ESE 32 41 17 22 1014.5 1014.4 0.0
29/02:00pm 28.0 23.7 15.3 46 7.7 SE 32 44 17 24 1014.7 1014.6 0.0
29/01:30pm 28.2 23.8 15.1 44 8.0 SE 32 43 17 23 1015.1 1015.0 0.0
29/01:00pm 28.4 24.1 15.3 45 8.0 SE 32 43 17 23 1015.4 1015.3 0.0
29/12:30pm 28.3 24.5 16.6 49 7.3 SE 32 41 17 22 1015.9 1015.8 0.0
29/12:00pm 28.0 24.9 17.5 52 6.6 SE 30 43 16 23 1016.4 1016.3 0.0
29/11:30am 27.7 23.2 15.4 47 7.5 ESE 33 46 18 25 1016.8 1016.7 0.0
29/11:00am 27.9 23.6 15.9 48 7.4 ESE 33 50 18 27 1017.1 1017.0 0.0
29/10:30am 27.7 23.6 16.0 49 7.2 ESE 32 43 17 23 1017.3 1017.2 0.0
29/10:17am 27.7 24.4 16.0 49 7.2 ESE 28 46 15 25 1017.3 1017.2 0.0
29/10:00am 27.3 24.0 16.0 50 6.9 ESE 28 41 15 22 1017.3 1017.2 0.0
29/09:30am 27.2 22.8 15.6 49 7.1 ESE 33 46 18 25 1017.2 1017.1 0.0
29/09:00am 26.7 22.8 16.9 55 6.1 ESE 33 46 18 25 1017.2 1017.1 0.0
29/08:30am 26.2 22.8 16.7 56 5.9 ESE 30 43 16 23 1017.2 1017.1 0.0
29/08:00am 25.2 22.9 18.4 66 4.3 SE 28 41 15 22 1016.8 1016.7 0.0
29/07:30am 24.6 22.2 17.3 64 4.5 SE 26 37 14 20 1016.4 1016.3 0.0
29/07:00am 24.2 21.0 16.2 61 4.9 SE 28 39 15 21 1016.0 1015.9 0.0
29/06:30am 23.6 20.1 15.6 61 4.8 SE 28 35 15 19 1015.6 1015.5 0.0
29/06:00am 23.5 20.4 15.5 60 4.8 ESE 26 39 14 21 1015.4 1015.3 0.0
29/05:30am 23.5 20.2 15.0 59 5.1 SE 26 39 14 21 1015.1 1015.0 0.0
29/05:00am 23.3 20.5 15.4 61 4.7 SE 24 33 13 18 1014.6 1014.5 0.0
29/04:30am 23.4 19.9 15.5 61 4.7 ESE 28 39 15 21 1014.1 1014.0 0.0
29/04:00am 23.4 20.1 16.0 63 4.5 ESE 28 37 15 20 1014.0 1013.9 0.0
29/03:30am 23.5 19.6 15.5 60 4.8 ESE 30 39 16 21 1013.9 1013.8 0.0
29/03:00am 23.7 20.0 17.0 66 4.1 SE 32 44 17 24 1014.0 1013.9 0.0
29/02:30am 23.7 20.5 17.2 67 4.0 SE 30 41 16 22 1014.3 1014.2 0.0
29/02:00am 23.6 20.5 16.6 65 4.3 SE 28 41 15 22 1014.7 1014.6 0.0
29/01:30am 23.6 20.7 16.1 62 4.6 ESE 26 39 14 21 1015.0 1014.9 0.0
29/01:00am 23.5 20.5 15.8 62 4.6 SE 26 43 14 23 1015.5 1015.4 0.0
29/12:30am 23.8 19.9 15.6 60 4.9 SE 30 43 16 23 1015.7 1015.6 0.0
29/12:00am 23.9 19.8 15.9 61 4.8 SE 32 46 17 25 1016.0 1015.9 0.0
 
Date/Time
EST
Temp
°C
App
Temp
°C
Dew
Point
Rel
Hum
%
Delta-T
°C
Wind Press
QNH
hPa
Press
MSL
hPa
Rain
since 9 am
mm
Dir
 
Spd
km/h
Gust
km/h
Spd
kts
Gust
kts
28/11:30pm 24.0 19.5 15.5 59 5.1 SE 33 44 18 24 1016.2 1016.1 0.0
28/11:00pm 24.0 19.9 16.0 61 4.9 SE 32 46 17 25 1016.5 1016.4 0.0
28/10:30pm 24.2 19.5 15.9 59 5.0 SE 35 48 19 26 1016.6 1016.5 0.0
28/10:00pm 24.1 20.2 15.6 59 5.1 SE 30 41 16 22 1016.7 1016.6 0.0
28/09:30pm 24.2 20.5 15.9 59 5.0 SE 30 46 16 25 1016.6 1016.5 0.0
28/09:00pm 24.1 20.4 16.1 61 4.9 SE 30 43 16 23 1016.2 1016.1 0.0
28/08:30pm 24.3 20.4 15.5 58 5.3 SE 30 39 16 21 1015.9 1015.8 0.0
28/08:00pm 24.3 21.0 16.0 60 5.0 SE 28 41 15 22 1015.9 1015.8 0.0
28/07:30pm 24.3 20.0 15.5 58 5.3 SE 32 43 17 23 1015.8 1015.7 0.0
28/07:00pm 24.2 20.7 15.4 58 5.3 SE 28 39 15 21 1015.6 1015.5 0.0
28/06:30pm 24.4 21.4 15.9 59 5.2 SE 26 35 14 19 1015.4 1015.3 0.0
28/06:00pm 24.8 21.9 16.0 58 5.4 SE 26 35 14 19 1015.1 1015.0 0.0
28/05:30pm 25.5 22.2 16.1 56 5.8 SE 28 35 15 19 1014.9 1014.8 0.0
28/05:00pm 26.0 23.2 16.3 55 6.0 SE 26 35 14 19 1014.7 1014.6 0.0
28/04:30pm 26.8 23.4 15.8 51 6.7 SE 28 39 15 21 1014.6 1014.5 0.0
28/04:00pm 27.6 24.4 17.2 53 6.5 SE 30 39 16 21 1014.4 1014.3 0.0
28/03:30pm 27.3 23.5 17.2 54 6.3 SE 33 41 18 22 1014.3 1014.2 0.0
28/03:00pm 27.4 23.6 17.3 54 6.3 SE 33 44 18 24 1014.4 1014.3 0.0
28/02:30pm 27.7 24.6 17.5 53 6.4 SE 30 39 16 21 1014.8 1014.7 0.0
28/02:00pm 28.3 24.8 17.8 53 6.7 SE 33 44 18 24 1015.1 1015.0 0.0
28/01:30pm 28.2 25.0 18.6 56 6.2 SE 33 44 18 24 1015.5 1015.4 0.0
28/01:00pm 28.4 25.3 18.5 55 6.3 SE 32 39 17 21 1015.7 1015.6 0.0
28/12:30pm 29.1 27.0 19.7 57 6.1 SE 30 37 16 20 1016.1 1016.0 0.0
28/12:00pm 28.3 25.9 19.0 57 6.0 SE 30 41 16 22 1016.7 1016.6 0.0
28/11:30am 28.1 26.3 18.8 57 6.0 ESE 26 35 14 19 1017.1 1017.0 0.0
28/11:00am 28.2 26.7 19.4 59 5.7 ESE 26 39 14 21 1017.4 1017.3 0.0
28/10:30am 27.1 25.5 19.2 62 5.1 ESE 26 33 14 18 1017.8 1017.7 0.0
28/10:00am 27.8 26.5 19.8 61 5.2 SE 26 35 14 19 1017.8 1017.7 0.0
28/09:30am 27.7 27.9 20.5 65 4.7 ESE 20 26 11 14 1017.8 1017.7 0.0
28/09:00am 25.8 25.3 19.9 70 3.8 ESE 22 30 12 16 1017.8 1017.7 0.0
28/08:30am 25.8 24.6 19.2 67 4.2 ESE 24 32 13 17 1017.5 1017.4 0.0
28/08:00am 26.0 25.3 19.4 67 4.2 ESE 22 33 12 18 1017.2 1017.1 0.0
28/07:30am 25.1 24.8 19.5 71 3.6 ESE 20 28 11 15 1016.7 1016.6 0.0
28/07:00am 24.5 24.5 19.8 75 3.0 ESE 19 26 10 14 1016.2 1016.1 0.0
28/06:30am 23.6 24.0 19.9 80 2.4 ESE 17 22 9 12 1015.9 1015.8 0.0
28/06:00am 23.3 24.0 19.7 80 2.3 ESE 15 22 8 12 1015.5 1015.4 0.0

Other Formats:

Comma delimited format used in spreadsheet applications
http://www.bom.gov.au/fwo/IDQ60801/IDQ60801.94188.axf

JavaScript Object Notation format (JSON) in row-major order
http://www.bom.gov.au/fwo/IDQ60801/IDQ60801.94188.json